createdAt,value
2023-04-23T00:02:16.621Z,1.45
2023-04-23T00:04:53.886Z,1.60
2023-04-23T00:07:21.919Z,1.67
2023-04-23T00:09:52.610Z,1.70
2023-04-23T00:12:20.930Z,1.95
2023-04-23T00:14:48.152Z,1.85
2023-04-23T00:17:15.166Z,1.77
2023-04-23T00:19:44.816Z,1.65
2023-04-23T00:22:17.618Z,1.73
2023-04-23T00:24:44.447Z,1.58
2023-04-23T00:27:11.245Z,1.60
2023-04-23T00:29:38.091Z,1.48
2023-04-23T00:32:07.988Z,1.70
2023-04-23T00:34:34.870Z,1.83
2023-04-23T00:37:05.740Z,1.60
2023-04-23T00:39:32.895Z,1.67
2023-04-23T00:42:02.644Z,1.52
2023-04-23T00:44:29.423Z,1.90
2023-04-23T00:46:56.336Z,1.50
2023-04-23T00:49:24.218Z,1.65
2023-04-23T00:51:51.120Z,1.70
2023-04-23T00:54:18.029Z,1.67
2023-04-23T00:56:45.020Z,1.65
2023-04-23T00:59:11.816Z,1.77
2023-04-23T01:01:38.763Z,1.60
2023-04-23T01:04:06.121Z,1.50
2023-04-23T01:06:33.564Z,1.63
2023-04-23T01:09:00.746Z,1.80
2023-04-23T01:11:28.805Z,1.83
2023-04-23T01:13:56.407Z,1.52
2023-04-23T01:16:23.462Z,1.55
2023-04-23T01:18:50.368Z,1.50
2023-04-23T01:21:18.073Z,1.50
2023-04-23T01:23:44.905Z,1.20
2023-04-23T01:26:11.800Z,1.70
2023-04-23T01:28:39.194Z,1.60
2023-04-23T01:31:06.291Z,1.50
2023-04-23T01:33:34.398Z,1.38
2023-04-23T01:36:03.011Z,1.52
2023-04-23T01:38:31.947Z,1.52
2023-04-23T01:40:58.790Z,1.42
2023-04-23T01:43:25.886Z,1.40
2023-04-23T01:45:53.148Z,1.17
2023-04-23T01:48:20.411Z,1.23
2023-04-23T01:50:48.745Z,1.20
2023-04-23T01:53:15.569Z,1.00
2023-04-23T01:55:46.135Z,1.42
2023-04-23T01:58:13.530Z,1.30
2023-04-23T02:00:40.446Z,1.40
2023-04-23T02:03:07.412Z,1.40
2023-04-23T02:05:35.930Z,1.30
2023-04-23T02:08:03.422Z,1.23
2023-04-23T02:10:31.656Z,1.40
2023-04-23T02:12:59.705Z,1.30
2023-04-23T02:15:26.618Z,1.02
2023-04-23T02:17:53.876Z,1.00
2023-04-23T02:20:21.631Z,1.10
2023-04-23T02:22:50.899Z,1.00
2023-04-23T02:25:18.970Z,1.08
2023-04-23T02:27:45.759Z,1.05
2023-04-23T02:30:12.807Z,0.88
2023-04-23T02:32:40.078Z,1.10
2023-04-23T02:35:09.297Z,0.95
2023-04-23T02:37:37.179Z,0.90
2023-04-23T02:40:08.037Z,1.08
2023-04-23T02:42:35.167Z,1.02
2023-04-23T02:45:02.018Z,1.00
2023-04-23T02:47:30.102Z,0.80
2023-04-23T02:49:57.573Z,1.00
2023-04-23T02:52:24.460Z,0.93
2023-04-23T02:54:51.278Z,1.00
2023-04-23T02:57:19.069Z,0.88
2023-04-23T02:59:46.285Z,1.00
2023-04-23T03:02:13.877Z,1.10
2023-04-23T03:04:41.330Z,1.00
2023-04-23T03:07:09.270Z,0.95
2023-04-23T03:09:36.099Z,0.90
2023-04-23T03:12:03.105Z,0.70
2023-04-23T03:14:30.309Z,0.75
2023-04-23T03:16:57.281Z,0.70
2023-04-23T03:19:24.375Z,0.70
2023-04-23T03:21:51.363Z,1.00
2023-04-23T03:24:18.202Z,0.77
2023-04-23T03:26:45.205Z,0.98
2023-04-23T03:29:12.026Z,0.90
2023-04-23T03:31:39.099Z,0.77
2023-04-23T03:34:08.440Z,0.75
2023-04-23T03:36:36.366Z,0.65
2023-04-23T03:39:03.873Z,0.70
2023-04-23T03:41:42.965Z,0.60
2023-04-23T03:44:11.388Z,0.70
2023-04-23T03:46:40.888Z,0.70
2023-04-23T03:49:08.153Z,0.52
2023-04-23T03:51:35.448Z,0.60
2023-04-23T03:54:02.253Z,0.43
2023-04-23T03:56:55.423Z,0.50
2023-04-23T03:59:26.486Z,0.50
2023-04-23T04:01:56.113Z,0.57
2023-04-23T04:04:25.663Z,0.40
2023-04-23T04:06:52.834Z,0.60
2023-04-23T04:09:19.664Z,0.45
2023-04-23T04:11:46.684Z,0.55
2023-04-23T04:14:13.918Z,0.50
2023-04-23T04:16:41.091Z,0.55
2023-04-23T04:19:08.013Z,0.50
2023-04-23T04:21:34.821Z,0.57
2023-04-23T04:24:01.659Z,0.50
2023-04-23T04:26:29.563Z,0.47
2023-04-23T04:28:58.219Z,0.55
2023-04-23T04:31:28.095Z,0.52
2023-04-23T04:36:22.958Z,0.60
2023-04-23T04:38:50.865Z,0.50
2023-04-23T04:41:19.933Z,0.60
2023-04-23T04:43:47.012Z,0.67
2023-04-23T04:46:14.215Z,0.70
2023-04-23T04:48:41.089Z,0.47
2023-04-23T04:51:07.951Z,0.50
2023-04-23T04:53:35.940Z,0.47
2023-04-23T04:56:02.942Z,0.50
2023-04-23T04:58:29.766Z,0.50
2023-04-23T05:00:56.682Z,0.40
2023-04-23T05:03:23.720Z,0.40
2023-04-23T05:05:50.657Z,0.40
2023-04-23T05:08:18.664Z,0.52
2023-04-23T05:10:45.736Z,0.50
2023-04-23T05:13:12.584Z,0.50
2023-04-23T05:15:39.374Z,0.43
2023-04-23T05:18:06.554Z,0.60
2023-04-23T05:20:33.476Z,0.40
2023-04-23T05:23:02.161Z,0.50
2023-04-23T05:25:32.501Z,0.70
2023-04-23T05:27:59.350Z,0.38
2023-04-23T05:30:27.267Z,0.43
2023-04-23T05:32:54.156Z,0.40
2023-04-23T05:35:21.058Z,0.60
2023-04-23T05:37:48.014Z,0.50
2023-04-23T05:40:15.124Z,0.50
2023-04-23T05:42:41.977Z,0.50
2023-04-23T05:45:09.612Z,0.50
2023-04-23T05:47:36.828Z,0.50
2023-04-23T05:50:03.718Z,0.52
2023-04-23T05:52:33.338Z,0.52
2023-04-23T05:55:00.309Z,0.60
2023-04-23T05:57:27.099Z,0.52
2023-04-23T05:59:53.864Z,0.52
2023-04-23T06:02:23.183Z,0.52
2023-04-23T06:04:52.135Z,0.60
2023-04-23T06:07:19.080Z,1.90
2023-04-23T06:09:45.879Z,1.58
2023-04-23T06:12:12.770Z,4.38
2023-04-23T06:14:39.824Z,3.60
2023-04-23T06:17:06.887Z,2.33
2023-04-23T06:19:33.730Z,1.30
2023-04-23T06:22:00.739Z,0.90
2023-04-23T06:24:27.580Z,0.70
2023-04-23T06:26:54.484Z,0.82
2023-04-23T06:29:22.410Z,0.73
2023-04-23T06:32:16.826Z,0.47
2023-04-23T06:34:59.544Z,0.50
2023-04-23T06:37:29.694Z,0.43
2023-04-23T06:39:57.952Z,0.70
2023-04-23T06:42:24.749Z,0.60
2023-04-23T06:45:12.676Z,0.70
2023-04-23T06:47:39.834Z,0.65
2023-04-23T06:50:08.338Z,0.70
2023-04-23T06:52:36.145Z,0.73
2023-04-23T06:55:03.015Z,0.70
2023-04-23T06:57:29.857Z,0.60
2023-04-23T06:59:56.661Z,0.70
2023-04-23T07:02:28.575Z,0.70
2023-04-23T07:04:55.534Z,0.65
2023-04-23T07:07:22.381Z,0.60
2023-04-23T07:09:49.180Z,0.80
2023-04-23T07:12:16.004Z,0.55
2023-04-23T07:14:43.717Z,0.80
2023-04-23T07:17:11.227Z,0.80
2023-04-23T07:19:38.323Z,0.70
2023-04-23T07:22:05.142Z,0.80
2023-04-23T07:24:31.944Z,1.00
2023-04-23T07:26:59.158Z,0.95
2023-04-23T07:29:25.955Z,0.90
2023-04-23T07:31:52.824Z,1.00
2023-04-23T07:34:19.631Z,0.90
2023-04-23T07:36:46.441Z,1.10
2023-04-23T07:39:13.280Z,0.80
2023-04-23T07:41:40.297Z,0.90
2023-04-23T07:44:07.155Z,0.70
2023-04-23T07:46:34.226Z,1.05
2023-04-23T07:49:01.214Z,0.80
2023-04-23T07:51:28.502Z,0.90
2023-04-23T07:53:56.423Z,0.75
2023-04-23T07:56:24.510Z,1.00
2023-04-23T07:58:53.780Z,0.90
2023-04-23T08:01:21.485Z,1.10
2023-04-23T08:03:48.425Z,0.77
2023-04-23T08:06:15.576Z,0.80
2023-04-23T08:08:42.417Z,0.95
2023-04-23T08:11:09.243Z,1.00
2023-04-23T08:13:36.066Z,0.80
2023-04-23T08:16:03.081Z,1.08
2023-04-23T08:18:29.882Z,1.02
2023-04-23T08:20:57.448Z,0.80
2023-04-23T08:23:24.486Z,1.00
2023-04-23T08:25:51.412Z,0.80
2023-04-23T08:28:19.569Z,1.00
2023-04-23T08:30:46.692Z,0.65
2023-04-23T08:33:14.433Z,0.93
2023-04-23T08:35:41.197Z,1.00
2023-04-23T08:38:07.970Z,0.98
2023-04-23T08:40:37.610Z,0.90
2023-04-23T08:43:28.453Z,0.90
2023-04-23T08:45:55.889Z,1.00
2023-04-23T08:48:22.882Z,0.70
2023-04-23T08:50:49.870Z,0.90
2023-04-23T08:53:20.726Z,0.82
2023-04-23T08:55:50.727Z,0.98
2023-04-23T09:00:44.931Z,1.10
2023-04-23T09:03:12.462Z,1.00
2023-04-23T09:05:39.969Z,1.10
2023-04-23T09:08:08.602Z,0.85
2023-04-23T09:10:41.395Z,0.75
2023-04-23T09:13:09.800Z,0.80
2023-04-23T09:15:39.464Z,0.88
2023-04-23T09:18:07.800Z,1.10
2023-04-23T09:20:34.682Z,0.80
2023-04-23T09:23:01.623Z,0.80
2023-04-23T09:25:28.488Z,0.80
2023-04-23T09:27:59.032Z,0.60
2023-04-23T09:30:27.424Z,0.77
2023-04-23T09:32:54.918Z,0.90
2023-04-23T09:35:22.057Z,0.82
2023-04-23T09:37:52.439Z,0.70
2023-04-23T09:40:23.435Z,0.70
2023-04-23T09:42:55.523Z,0.80
2023-04-23T09:45:22.882Z,0.80
2023-04-23T09:47:55.927Z,0.70
2023-04-23T09:50:38.865Z,0.80
2023-04-23T09:53:07.904Z,0.90
2023-04-23T09:55:40.650Z,0.87
2023-04-23T09:58:15.427Z,0.57
2023-04-23T10:00:43.079Z,0.80
2023-04-23T10:03:11.027Z,0.88
2023-04-23T10:08:14.524Z,0.90
2023-04-23T10:10:51.503Z,0.88
2023-04-23T10:13:21.813Z,0.70
2023-04-23T10:15:48.684Z,0.60
2023-04-23T10:18:16.288Z,0.65
2023-04-23T10:20:43.560Z,0.77
2023-04-23T10:23:13.033Z,0.52
2023-04-23T10:25:41.780Z,1.05
2023-04-23T10:28:11.660Z,0.80
2023-04-23T10:33:15.764Z,0.50
2023-04-23T10:35:49.916Z,0.57
2023-04-23T10:38:16.846Z,0.60
2023-04-23T10:40:46.859Z,0.60
2023-04-23T10:43:13.998Z,0.60
2023-04-23T10:45:40.833Z,0.60
2023-04-23T10:48:08.604Z,0.75
2023-04-23T10:50:37.800Z,0.50
2023-04-23T10:53:05.674Z,0.60
2023-04-23T10:55:33.055Z,0.52
2023-04-23T10:58:07.389Z,0.65
2023-04-23T11:00:43.332Z,0.70
2023-04-23T11:03:41.580Z,0.50
2023-04-23T11:06:17.563Z,0.70
2023-04-23T11:08:54.791Z,0.82
2023-04-23T11:11:41.461Z,0.50
2023-04-23T11:14:14.265Z,0.63
2023-04-23T11:16:41.594Z,0.68
2023-04-23T11:19:12.544Z,0.77
2023-04-23T11:22:06.141Z,0.65
2023-04-23T11:24:42.518Z,0.70
2023-04-23T11:27:11.823Z,0.60
2023-04-23T11:29:41.033Z,0.40
2023-04-23T11:32:15.779Z,0.50
2023-04-23T11:34:45.260Z,0.60
2023-04-23T11:37:15.251Z,0.70
2023-04-23T11:42:13.081Z,0.60
2023-04-23T11:44:44.915Z,0.45
2023-04-23T11:47:14.083Z,0.68
2023-04-23T11:49:43.414Z,0.90
2023-04-23T11:54:41.888Z,0.57
2023-04-23T11:57:09.932Z,0.52
2023-04-23T11:59:36.760Z,0.40
2023-04-23T12:02:03.641Z,0.60
2023-04-23T12:04:31.987Z,0.43
2023-04-23T12:07:00.024Z,0.50
2023-04-23T12:09:29.267Z,0.40
2023-04-23T12:12:00.714Z,0.50
2023-04-23T12:14:30.024Z,0.68
2023-04-23T12:16:58.241Z,0.40
2023-04-23T12:19:30.095Z,0.60
2023-04-23T12:22:00.883Z,0.60
2023-04-23T12:24:30.652Z,0.45
2023-04-23T12:27:00.896Z,0.60
2023-04-23T12:29:30.584Z,0.43
2023-04-23T12:32:00.341Z,0.47
2023-04-23T12:36:56.394Z,0.60
2023-04-23T12:39:31.958Z,0.70
2023-04-23T12:42:08.069Z,0.50
2023-04-23T12:44:39.334Z,0.65
2023-04-23T12:47:08.765Z,0.43
2023-04-23T12:49:39.143Z,0.50
2023-04-23T12:52:07.240Z,0.45
2023-04-23T12:54:40.388Z,0.50
2023-04-23T12:57:11.343Z,0.47
2023-04-23T12:59:38.285Z,0.50
2023-04-23T13:02:06.521Z,0.45
2023-04-23T13:04:36.323Z,0.65
2023-04-23T13:07:03.936Z,0.63
2023-04-23T13:09:30.881Z,0.68
2023-04-23T13:11:59.751Z,0.60
2023-04-23T13:14:27.221Z,0.60
2023-04-23T13:16:54.330Z,0.80
2023-04-23T13:19:21.161Z,0.50
2023-04-23T13:21:47.935Z,0.50
2023-04-23T13:24:14.699Z,0.50
2023-04-23T13:26:41.645Z,0.50
2023-04-23T13:29:08.441Z,0.45
2023-04-23T13:31:35.509Z,0.60
2023-04-23T13:34:02.948Z,0.50
2023-04-23T13:36:30.014Z,0.57
2023-04-23T13:38:56.915Z,0.47
2023-04-23T13:41:23.758Z,0.50
2023-04-23T13:43:50.630Z,0.50
2023-04-23T13:46:17.502Z,0.60
2023-04-23T13:48:44.351Z,0.50
2023-04-23T13:51:21.757Z,0.55
2023-04-23T13:53:59.082Z,0.60
2023-04-23T13:56:27.550Z,0.43
2023-04-23T13:59:02.251Z,0.60
2023-04-23T14:01:35.327Z,0.43
2023-04-23T14:04:04.219Z,0.50
2023-04-23T14:06:31.312Z,0.40
2023-04-23T14:08:58.150Z,0.50
2023-04-23T14:11:25.128Z,0.60
2023-04-23T14:13:52.023Z,0.68
2023-04-23T14:16:18.897Z,0.40
2023-04-23T14:18:45.791Z,0.40
2023-04-23T14:21:16.300Z,0.32
2023-04-23T14:23:47.802Z,0.40
2023-04-23T14:26:44.780Z,0.50
2023-04-23T14:29:30.138Z,0.50
2023-04-23T14:31:56.945Z,0.57
2023-04-23T14:34:23.803Z,0.40
2023-04-23T14:36:52.929Z,0.60
2023-04-23T14:39:22.380Z,0.57
2023-04-23T14:41:49.247Z,0.40
2023-04-23T14:44:16.080Z,0.55
2023-04-23T14:46:43.029Z,0.60
2023-04-23T14:49:10.294Z,0.85
2023-04-23T14:51:37.448Z,0.70
2023-04-23T14:54:04.881Z,0.60
2023-04-23T14:56:31.700Z,0.50
2023-04-23T14:58:58.505Z,0.60
2023-04-23T15:01:25.449Z,0.60
2023-04-23T15:03:53.807Z,0.57
2023-04-23T15:06:20.857Z,0.80
2023-04-23T15:08:47.775Z,0.60
2023-04-23T15:11:14.728Z,0.70
2023-04-23T15:13:56.528Z,0.65
2023-04-23T15:16:46.905Z,0.73
2023-04-23T15:19:15.117Z,0.70
2023-04-23T15:21:42.898Z,0.50
2023-04-23T15:24:10.225Z,0.70
2023-04-23T15:26:38.074Z,0.70
2023-04-23T15:29:08.550Z,0.50
2023-04-23T15:31:36.296Z,0.60
2023-04-23T15:34:05.971Z,0.55
2023-04-23T15:36:33.288Z,0.47
2023-04-23T15:39:00.355Z,0.52
2023-04-23T15:41:27.302Z,0.60
2023-04-23T15:43:54.913Z,0.70
2023-04-23T15:46:21.760Z,0.40
2023-04-23T15:48:48.840Z,0.60
2023-04-23T15:51:16.119Z,0.60
2023-04-23T15:53:42.906Z,0.70
2023-04-23T15:56:09.693Z,0.63
2023-04-23T15:58:36.566Z,0.80
2023-04-23T16:01:03.536Z,0.70
2023-04-23T16:03:30.591Z,0.55
2023-04-23T16:05:57.580Z,0.93
2023-04-23T16:08:24.374Z,0.85
2023-04-23T16:10:51.251Z,0.50
2023-04-23T16:13:18.084Z,0.90
2023-04-23T16:15:44.983Z,0.55
2023-04-23T16:18:11.889Z,0.60
2023-04-23T16:20:38.835Z,0.60
2023-04-23T16:23:06.677Z,0.50
2023-04-23T16:25:33.497Z,0.50
2023-04-23T16:28:00.302Z,0.70
2023-04-23T16:30:27.125Z,0.75
2023-04-23T16:32:53.992Z,0.88
2023-04-23T16:35:20.886Z,0.70
2023-04-23T16:37:47.702Z,0.60
2023-04-23T16:40:16.030Z,0.80
2023-04-23T16:42:43.721Z,0.60
2023-04-23T16:45:11.373Z,0.73
2023-04-23T16:47:38.409Z,0.68
2023-04-23T16:50:05.965Z,0.60
2023-04-23T16:52:33.065Z,0.50
2023-04-23T16:54:59.996Z,0.63
2023-04-23T16:57:27.448Z,0.60
2023-04-23T16:59:54.569Z,0.70
2023-04-23T17:02:21.417Z,0.63
2023-04-23T17:04:48.720Z,0.60
2023-04-23T17:07:16.021Z,0.68
2023-04-23T17:09:43.261Z,0.60
2023-04-23T17:12:10.156Z,0.60
2023-04-23T17:14:36.925Z,0.70
2023-04-23T17:17:03.694Z,0.60
2023-04-23T17:19:30.522Z,0.73
2023-04-23T17:21:57.836Z,0.55
2023-04-23T17:24:24.646Z,0.73
2023-04-23T17:26:51.419Z,0.60
2023-04-23T17:29:18.241Z,0.50
2023-04-23T17:31:45.199Z,0.45
2023-04-23T17:34:12.050Z,0.70
2023-04-23T17:36:38.837Z,0.70
2023-04-23T17:39:05.761Z,0.60
2023-04-23T17:41:32.668Z,0.60
2023-04-23T17:43:59.513Z,0.63
2023-04-23T17:46:26.404Z,0.70
2023-04-23T17:48:53.278Z,0.70
2023-04-23T17:51:21.373Z,0.60
2023-04-23T17:53:48.554Z,0.60
2023-04-23T17:56:17.023Z,0.70
2023-04-23T17:58:43.864Z,0.70
2023-04-23T18:01:11.339Z,0.60
2023-04-23T18:03:38.371Z,0.70
2023-04-23T18:06:06.021Z,0.98
2023-04-23T18:08:32.894Z,0.68
2023-04-23T18:10:59.877Z,0.70
2023-04-23T18:13:26.903Z,0.70
2023-04-23T18:15:53.739Z,0.68
2023-04-23T18:18:21.821Z,0.75
2023-04-23T18:20:49.068Z,0.90
2023-04-23T18:23:16.374Z,0.70
2023-04-23T18:25:43.266Z,0.82
2023-04-23T18:28:10.552Z,0.80
2023-04-23T18:30:38.395Z,0.82
2023-04-23T18:33:26.548Z,0.70
2023-04-23T18:35:59.325Z,0.60
2023-04-23T18:38:37.350Z,0.70
2023-04-23T18:41:04.735Z,0.70
2023-04-23T18:43:31.886Z,0.93
2023-04-23T18:45:59.046Z,0.60
2023-04-23T18:48:35.053Z,0.70
2023-04-23T18:51:45.637Z,0.57
2023-04-23T18:54:17.440Z,0.77
2023-04-23T18:56:47.892Z,0.60
2023-04-23T18:59:14.871Z,0.60
2023-04-23T19:01:43.108Z,0.63
2023-04-23T19:04:10.502Z,0.70
2023-04-23T19:06:38.208Z,0.60
2023-04-23T19:09:05.086Z,0.55
2023-04-23T19:11:35.056Z,0.57
2023-04-23T19:16:29.619Z,0.80
2023-04-23T19:18:56.614Z,0.55
2023-04-23T19:21:23.417Z,0.50
2023-04-23T19:23:53.876Z,0.50
2023-04-23T19:26:20.663Z,0.50
2023-04-23T19:28:47.464Z,0.60
2023-04-23T19:31:14.348Z,0.60
2023-04-23T19:33:45.131Z,0.60
2023-04-23T19:36:12.135Z,0.50
2023-04-23T19:38:40.874Z,0.47
2023-04-23T19:41:09.385Z,0.50
2023-04-23T19:43:36.528Z,0.35
2023-04-23T19:46:03.395Z,0.43
2023-04-23T19:48:31.008Z,0.52
2023-04-23T19:50:59.569Z,0.73
2023-04-23T19:53:27.396Z,0.50
2023-04-23T19:55:55.338Z,0.40
2023-04-23T19:58:22.131Z,0.50
2023-04-23T20:00:48.996Z,1.30
2023-04-23T20:03:16.001Z,0.70
2023-04-23T20:05:44.659Z,0.60
2023-04-23T20:08:15.478Z,0.50
2023-04-23T20:10:43.117Z,0.50
2023-04-23T20:13:09.978Z,0.40
2023-04-23T20:15:36.784Z,0.60
2023-04-23T20:18:03.798Z,0.50
2023-04-23T20:20:30.672Z,0.50
2023-04-23T20:22:57.662Z,0.40
2023-04-23T20:25:25.912Z,0.50
2023-04-23T20:27:56.401Z,0.40
2023-04-23T20:30:23.330Z,0.40
2023-04-23T20:32:50.249Z,0.43
2023-04-23T20:35:17.014Z,0.55
2023-04-23T20:37:43.892Z,0.55
2023-04-23T20:40:10.846Z,0.52
2023-04-23T20:42:39.224Z,0.40
2023-04-23T20:45:08.014Z,0.50
2023-04-23T20:47:34.843Z,0.50
2023-04-23T20:50:01.672Z,0.60
2023-04-23T20:52:29.064Z,0.43
2023-04-23T20:54:56.024Z,0.40
2023-04-23T20:57:22.841Z,0.40
2023-04-23T20:59:49.642Z,0.35
2023-04-23T21:02:16.533Z,0.32
2023-04-23T21:04:43.494Z,0.40
2023-04-23T21:07:10.393Z,0.70
2023-04-23T21:09:37.223Z,0.40
2023-04-23T21:12:04.611Z,0.40
2023-04-23T21:14:33.621Z,0.47
2023-04-23T21:17:00.791Z,0.63
2023-04-23T21:19:27.596Z,0.40
2023-04-23T21:21:54.420Z,0.40
2023-04-23T21:24:22.525Z,0.40
2023-04-23T21:26:49.579Z,0.40
2023-04-23T21:29:16.540Z,0.40
2023-04-23T21:31:46.786Z,0.43
2023-04-23T21:34:14.826Z,0.50
2023-04-23T21:36:41.786Z,0.40
2023-04-23T21:39:09.028Z,0.35
2023-04-23T21:41:37.716Z,0.50
2023-04-23T21:44:04.713Z,0.40
2023-04-23T21:46:32.129Z,0.40
2023-04-23T21:48:59.096Z,0.50
2023-04-23T21:51:26.074Z,0.60
2023-04-23T21:53:52.882Z,0.50
2023-04-23T21:56:19.845Z,0.50
2023-04-23T21:58:46.645Z,0.40
2023-04-23T22:01:13.751Z,0.32
2023-04-23T22:03:43.274Z,0.40
2023-04-23T22:06:10.245Z,0.50
2023-04-23T22:08:38.070Z,0.50
2023-04-23T22:11:07.228Z,0.47
2023-04-23T22:13:34.727Z,0.60
2023-04-23T22:16:01.783Z,0.40
2023-04-23T22:18:28.619Z,0.60
2023-04-23T22:20:55.430Z,0.70
2023-04-23T22:23:22.441Z,0.40
2023-04-23T22:25:49.319Z,0.50
2023-04-23T22:28:16.658Z,0.50
2023-04-23T22:30:43.900Z,0.60
2023-04-23T22:33:10.861Z,0.40
2023-04-23T22:35:37.635Z,0.50
2023-04-23T22:38:05.284Z,0.57
2023-04-23T22:40:32.124Z,0.40
2023-04-23T22:42:58.900Z,0.50
2023-04-23T22:45:25.772Z,0.50
2023-04-23T22:47:52.658Z,0.70
2023-04-23T22:50:19.629Z,0.50
2023-04-23T22:52:46.442Z,0.50
2023-04-23T22:55:13.214Z,0.60
2023-04-23T22:57:40.607Z,0.50
2023-04-23T23:00:08.137Z,0.50
2023-04-23T23:02:35.247Z,0.52
2023-04-23T23:05:02.117Z,0.50
2023-04-23T23:07:28.949Z,0.70
2023-04-23T23:09:55.783Z,0.50
2023-04-23T23:12:22.556Z,0.63
2023-04-23T23:14:49.328Z,0.40
2023-04-23T23:17:16.167Z,0.60
2023-04-23T23:19:43.170Z,0.60
2023-04-23T23:22:10.213Z,0.50
2023-04-23T23:24:37.025Z,0.60
2023-04-23T23:27:03.984Z,0.50
2023-04-23T23:29:31.269Z,0.40
2023-04-23T23:31:58.240Z,0.60
2023-04-23T23:34:25.076Z,0.52
2023-04-23T23:36:51.873Z,0.52
2023-04-23T23:39:19.945Z,0.40
2023-04-23T23:41:47.129Z,0.60
2023-04-23T23:44:14.202Z,0.60
2023-04-23T23:46:41.158Z,0.60
2023-04-23T23:49:08.307Z,0.55
2023-04-23T23:51:35.341Z,0.50
2023-04-23T23:54:02.205Z,0.50
2023-04-23T23:56:29.055Z,0.60
2023-04-23T23:58:55.865Z,0.65
